Time;durP1;ratioP1;P1;durP2;ratioP2;P2;SDS_P1;SDS_P2;PMS_P1;PMS_P2;Temp;Humidity;BMP_temperature;BMP_pressure;BME280_temperature;BME280_humidity;BME280_pressure;Samples;Min_cycle;Max_cycle;Signal;HPM_P1;HPM_P2
2023/07/13 00:00:42;;;;;;;5.30;1.85;;;;;;;20.27;100.00;97318.97;5043211;28;20420;-68
2023/07/13 00:03:08;;;;;;;3.10;1.60;;;;;;;20.25;100.00;97317.72;5051053;28;20484;-67
2023/07/13 00:05:34;;;;;;;3.03;1.65;;;;;;;20.19;100.00;97310.91;5051034;28;20583;-68
2023/07/13 00:08:01;;;;;;;3.80;1.63;;;;;;;20.16;100.00;97317.69;5051075;28;20911;-68
2023/07/13 00:10:27;;;;;;;5.60;1.75;;;;;;;20.18;100.00;97312.81;5050874;28;20752;-68
2023/07/13 00:12:55;;;;;;;5.18;2.15;;;;;;;20.12;100.00;97308.69;5050944;28;20405;-68
2023/07/13 00:15:26;;;;;;;4.40;1.73;;;;;;;20.13;100.00;97304.09;5033464;28;20934;-68
2023/07/13 00:17:54;;;;;;;3.53;1.70;;;;;;;20.04;100.00;97306.78;5044500;28;20433;-68
2023/07/13 00:20:21;;;;;;;6.65;1.80;;;;;;;20.00;100.00;97303.91;5050615;28;20471;-68
2023/07/13 00:22:48;;;;;;;6.97;2.00;;;;;;;19.97;100.00;97301.06;5050666;28;20485;-67
2023/07/13 00:25:15;;;;;;;3.22;1.60;;;;;;;19.92;100.00;97299.31;5050539;28;20413;-68
2023/07/13 00:27:42;;;;;;;3.83;1.85;;;;;;;19.89;100.00;97302.63;5050925;28;20413;-68
2023/07/13 00:30:10;;;;;;;4.47;2.10;;;;;;;19.87;100.00;97306.72;5050730;28;20412;-68
2023/07/13 00:32:38;;;;;;;6.97;2.00;;;;;;;19.86;100.00;97305.16;5050541;28;20407;-68
2023/07/13 00:35:05;;;;;;;9.27;1.88;;;;;;;19.80;100.00;97295.66;5050528;28;20405;-68
2023/07/13 00:37:31;;;;;;;4.13;1.77;;;;;;;19.79;100.00;97291.38;5050642;28;20806;-68
2023/07/13 00:39:57;;;;;;;2.90;1.67;;;;;;;19.76;100.00;97300.09;5050583;28;20445;-68
2023/07/13 00:42:23;;;;;;;4.80;1.90;;;;;;;19.73;100.00;97289.94;5050389;28;20409;-68
2023/07/13 00:45:26;;;;;;;3.83;2.00;;;;;;;19.72;100.00;97305.28;5050202;28;20799;-68
2023/07/13 00:47:54;;;;;;;4.57;1.90;;;;;;;19.73;100.00;97303.38;5050364;28;20397;-68
2023/07/13 00:50:22;;;;;;;5.05;1.92;;;;;;;19.73;100.00;97309.53;5050362;28;20451;-68
2023/07/13 00:52:51;;;;;;;4.07;1.60;;;;;;;19.67;100.00;97303.53;5050446;28;20429;-68
2023/07/13 00:55:18;;;;;;;7.55;1.90;;;;;;;19.65;100.00;97296.88;5050403;28;20480;-68
2023/07/13 00:57:45;;;;;;;3.80;1.58;;;;;;;19.66;100.00;97301.94;5050491;28;20415;-68
2023/07/13 01:00:12;;;;;;;4.18;1.77;;;;;;;19.69;100.00;97308.59;5050401;28;20894;-67
2023/07/13 01:02:41;;;;;;;6.55;2.00;;;;;;;19.67;100.00;97310.78;5050319;28;20508;-67
2023/07/13 01:05:11;;;;;;;6.43;1.70;;;;;;;19.67;100.00;97314.28;5050251;28;20398;-67
2023/07/13 01:07:38;;;;;;;6.25;2.00;;;;;;;19.67;100.00;97318.84;5050428;28;20451;-67
2023/07/13 01:10:05;;;;;;;6.65;2.08;;;;;;;19.65;100.00;97321.84;5050392;28;20484;-67
2023/07/13 01:12:31;;;;;;;3.33;1.83;;;;;;;19.60;100.00;97316.63;5050196;28;20401;-67
2023/07/13 01:15:00;;;;;;;5.40;2.05;;;;;;;19.55;100.00;97316.75;5032270;28;20421;-67
2023/07/13 01:17:27;;;;;;;7.35;1.90;;;;;;;19.49;100.00;97326.03;5050271;28;20398;-67
2023/07/13 01:19:54;;;;;;;3.28;1.90;;;;;;;19.51;100.00;97315.00;5050133;28;20448;-67
2023/07/13 01:22:26;;;;;;;5.35;1.70;;;;;;;19.47;100.00;97320.19;5032108;28;20429;-67
2023/07/13 01:24:54;;;;;;;5.93;1.90;;;;;;;19.39;100.00;97322.81;5050065;28;20484;-67
2023/07/13 01:27:25;;;;;;;2.58;1.67;;;;;;;19.34;100.00;97329.91;5050186;28;20969;-67
2023/07/13 01:29:53;;;;;;;2.50;2.00;;;;;;;19.29;100.00;97334.59;5050104;28;20436;-67
2023/07/13 01:32:23;;;;;;;3.53;1.98;;;;;;;19.20;100.00;97326.50;5050119;28;20764;-67
2023/07/13 01:34:50;;;;;;;3.90;2.00;;;;;;;19.14;100.00;97322.38;5036847;28;20410;-67
2023/07/13 01:37:17;;;;;;;3.42;1.92;;;;;;;19.05;100.00;97326.09;5047074;28;20401;-67
2023/07/13 01:39:44;;;;;;;4.20;1.98;;;;;;;18.95;100.00;97327.94;5049973;28;20472;-67
2023/07/13 01:42:10;;;;;;;3.75;2.00;;;;;;;18.88;100.00;97337.50;5049967;28;20416;-67
2023/07/13 01:44:37;;;;;;;4.95;2.40;;;;;;;18.80;100.00;97335.56;5049879;28;20393;-67
2023/07/13 01:47:03;;;;;;;5.05;1.77;;;;;;;18.77;100.00;97333.50;5050079;28;20430;-67
2023/07/13 01:49:30;;;;;;;4.82;2.40;;;;;;;18.70;100.00;97338.50;5049996;28;20440;-67
2023/07/13 01:51:56;;;;;;;2.80;1.73;;;;;;;18.61;100.00;97335.75;5049893;28;20488;-67
2023/07/13 01:54:22;;;;;;;4.45;2.15;;;;;;;18.53;100.00;97329.19;5049765;28;20481;-67
2023/07/13 01:56:50;;;;;;;3.08;2.13;;;;;;;18.52;100.00;97326.81;5051725;28;20401;-67
2023/07/13 01:59:16;;;;;;;3.88;1.80;;;;;;;18.47;100.00;97326.94;5053448;28;20905;-67
2023/07/13 02:01:42;;;;;;;4.83;2.53;;;;;;;18.43;100.00;97328.63;5053414;28;20401;-67
2023/07/13 02:04:08;;;;;;;4.43;2.25;;;;;;;18.37;100.00;97332.50;5053372;28;20397;-67
2023/07/13 02:06:34;;;;;;;4.72;2.28;;;;;;;18.30;100.00;97332.94;5053500;28;20913;-67
2023/07/13 02:09:01;;;;;;;5.85;2.70;;;;;;;18.24;100.00;97336.81;5053372;28;20462;-67
2023/07/13 02:11:32;;;;;;;6.60;2.30;;;;;;;18.22;100.00;97333.63;5053206;28;20408;-67
2023/07/13 02:14:01;;;;;;;3.38;2.58;;;;;;;18.16;100.00;97341.00;5053156;28;20405;-67
2023/07/13 02:16:28;;;;;;;6.75;2.58;;;;;;;18.13;100.00;97336.22;5043182;28;20422;-67
2023/07/13 02:18:55;;;;;;;4.55;2.45;;;;;;;18.07;100.00;97345.47;5046915;28;20775;-67
2023/07/13 02:21:21;;;;;;;4.72;2.83;;;;;;;18.02;100.00;97342.91;5052637;28;20420;-67
2023/07/13 02:23:48;;;;;;;5.65;2.50;;;;;;;18.00;100.00;97341.63;5052381;28;20404;-67
2023/07/13 02:26:14;;;;;;;6.10;2.83;;;;;;;17.94;100.00;97343.63;5052330;28;20405;-67
2023/07/13 02:28:40;;;;;;;5.37;2.57;;;;;;;17.90;100.00;97337.25;5052681;28;20405;-67
2023/07/13 02:31:10;;;;;;;4.63;2.78;;;;;;;17.87;100.00;97345.91;5052523;28;20394;-67
2023/07/13 02:33:36;;;;;;;4.32;2.55;;;;;;;17.82;100.00;97340.63;5051960;28;20409;-67
2023/07/13 02:36:03;;;;;;;4.20;2.60;;;;;;;17.79;100.00;97346.59;5052412;28;20451;-67
2023/07/13 02:38:29;;;;;;;6.22;3.20;;;;;;;17.75;100.00;97341.03;5052193;28;20401;-67
2023/07/13 02:40:56;;;;;;;6.28;2.92;;;;;;;17.70;100.00;97345.69;5052244;28;20498;-67
2023/07/13 02:43:22;;;;;;;4.75;2.97;;;;;;;17.66;100.00;97358.09;5052209;28;20408;-67
2023/07/13 02:45:49;;;;;;;6.65;3.15;;;;;;;17.67;100.00;97354.31;5052050;28;20417;-67
2023/07/13 02:48:16;;;;;;;8.03;3.60;;;;;;;17.65;100.00;97357.31;5052062;28;20459;-66
2023/07/13 02:50:44;;;;;;;5.10;3.17;;;;;;;17.64;100.00;97355.72;5052388;28;20481;-67
2023/07/13 02:53:10;;;;;;;5.95;3.30;;;;;;;17.62;100.00;97357.88;5052162;28;20436;-66
2023/07/13 02:55:36;;;;;;;4.20;3.17;;;;;;;17.59;100.00;97353.09;5051721;28;20397;-67
2023/07/13 02:58:02;;;;;;;3.10;2.80;;;;;;;17.55;100.00;97359.34;5052093;28;20409;-66
2023/07/13 03:00:29;;;;;;;4.72;3.10;;;;;;;17.52;100.00;97362.59;5051833;28;20471;-67
2023/07/13 03:02:57;;;;;;;3.97;2.80;;;;;;;17.48;100.00;97364.28;5051725;28;20879;-67
2023/07/13 03:05:25;;;;;;;4.35;2.80;;;;;;;17.44;100.00;97355.28;5051630;28;20815;-67
2023/07/13 03:07:51;;;;;;;3.95;2.70;;;;;;;17.39;100.00;97364.97;5051505;28;20810;-66
2023/07/13 03:10:17;;;;;;;3.35;2.83;;;;;;;17.37;100.00;97374.38;5051277;28;20402;-66
2023/07/13 03:12:43;;;;;;;4.65;3.35;;;;;;;17.35;100.00;97372.00;5035698;28;20405;-67
2023/07/13 03:15:10;;;;;;;5.20;3.15;;;;;;;17.37;100.00;97380.53;5051541;28;20451;-67
2023/07/13 03:17:36;;;;;;;6.20;3.50;;;;;;;17.33;100.00;97382.22;5051539;28;20887;-67
2023/07/13 03:20:03;;;;;;;3.85;3.20;;;;;;;17.37;100.00;97383.19;5051508;28;20421;-67
2023/07/13 03:22:31;;;;;;;5.18;3.20;;;;;;;17.42;100.00;97380.44;5051405;28;20405;-68
2023/07/13 03:24:57;;;;;;;9.88;3.58;;;;;;;17.45;100.00;97376.38;5051272;28;20925;-68
2023/07/13 03:27:23;;;;;;;6.22;3.25;;;;;;;17.45;100.00;97383.59;5051463;28;20401;-67
2023/07/13 03:29:49;;;;;;;5.80;2.92;;;;;;;17.45;100.00;97392.44;5051372;28;20397;-68
2023/07/13 03:32:16;;;;;;;3.78;3.08;;;;;;;17.50;100.00;97396.91;5051055;28;20799;-68
2023/07/13 03:34:42;;;;;;;4.10;3.08;;;;;;;17.53;100.00;97398.97;5051168;28;20401;-67
2023/07/13 03:37:08;;;;;;;3.70;3.03;;;;;;;17.55;100.00;97400.28;5051357;28;20405;-68
2023/07/13 03:39:35;;;;;;;4.28;2.97;;;;;;;17.57;100.00;97402.66;5051076;28;20456;-68
2023/07/13 03:42:02;;;;;;;3.92;3.00;;;;;;;17.61;100.00;97400.97;5051005;28;20421;-68
2023/07/13 03:44:28;;;;;;;4.05;3.08;;;;;;;17.63;100.00;97399.63;5050842;28;20417;-67
2023/07/13 03:46:54;;;;;;;3.80;2.93;;;;;;;17.63;100.00;97406.88;5045661;28;20407;-67
2023/07/13 03:49:20;;;;;;;5.10;3.10;;;;;;;17.64;100.00;97405.78;5048580;28;20401;-68
2023/07/13 03:51:47;;;;;;;7.53;3.25;;;;;;;17.64;100.00;97411.13;5050348;28;20409;-67
2023/07/13 03:54:13;;;;;;;3.95;3.00;;;;;;;17.62;100.00;97410.63;5040999;28;20408;-67
2023/07/13 03:56:40;;;;;;;4.15;3.00;;;;;;;17.63;100.00;97402.31;5051232;28;20401;-67
2023/07/13 03:59:07;;;;;;;4.05;2.97;;;;;;;17.65;100.00;97404.69;5044771;28;20449;-67
2023/07/13 04:01:33;;;;;;;3.60;3.10;;;;;;;17.64;100.00;97417.28;5043540;28;20422;-67
2023/07/13 04:03:59;;;;;;;5.07;3.00;;;;;;;17.66;100.00;97411.66;5032019;28;20406;-67
2023/07/13 04:06:29;;;;;;;4.50;2.83;;;;;;;17.64;100.00;97417.28;5035319;28;20492;-67
2023/07/13 04:08:58;;;;;;;3.90;2.90;;;;;;;17.64;100.00;97422.63;5037595;28;20553;-67
2023/07/13 04:11:27;;;;;;;5.90;3.08;;;;;;;17.64;100.00;97424.53;5039980;28;20399;-67
2023/07/13 04:13:55;;;;;;;5.78;3.40;;;;;;;17.66;100.00;97423.16;5028361;28;20401;-67
2023/07/13 04:16:22;;;;;;;5.40;3.30;;;;;;;17.70;100.00;97424.13;5040632;28;20407;-67
2023/07/13 04:18:49;;;;;;;5.20;3.00;;;;;;;17.69;100.00;97421.75;5050319;28;20437;-67
2023/07/13 04:21:16;;;;;;;4.13;3.20;;;;;;;17.70;100.00;97424.13;5050792;28;20914;-67
2023/07/13 04:23:42;;;;;;;4.65;3.38;;;;;;;17.73;100.00;97428.91;5044368;28;20791;-67
2023/07/13 04:26:09;;;;;;;4.55;3.08;;;;;;;17.73;100.00;97420.88;5050761;28;20874;-67
2023/07/13 04:28:35;;;;;;;4.53;2.90;;;;;;;17.73;100.00;97425.44;5050778;28;20420;-66
2023/07/13 04:31:03;;;;;;;3.95;3.10;;;;;;;17.73;100.00;97431.59;5044314;28;20442;-68
2023/07/13 04:33:29;;;;;;;3.50;2.78;;;;;;;17.71;100.00;97423.03;5040646;28;20413;-66
2023/07/13 04:35:56;;;;;;;4.83;3.17;;;;;;;17.69;100.00;97427.09;5050784;28;20409;-66
2023/07/13 04:38:24;;;;;;;4.75;3.00;;;;;;;17.65;100.00;97428.78;5050526;28;20903;-66
2023/07/13 04:40:51;;;;;;;4.50;3.00;;;;;;;17.62;100.00;97426.69;5050523;28;20414;-66
2023/07/13 04:43:17;;;;;;;6.03;3.40;;;;;;;17.60;100.00;97431.50;5050260;28;20405;-66
2023/07/13 04:45:44;;;;;;;8.00;3.30;;;;;;;17.55;100.00;97434.28;5050140;28;20465;-66
2023/07/13 04:48:11;;;;;;;4.03;3.38;;;;;;;17.54;100.00;97440.72;5050365;28;20435;-66
2023/07/13 04:50:38;;;;;;;5.80;3.10;;;;;;;17.51;100.00;97439.44;5050173;28;20772;-66
2023/07/13 04:53:05;;;;;;;6.67;3.57;;;;;;;17.46;100.00;97444.88;5050112;28;20398;-66
2023/07/13 04:55:31;;;;;;;6.35;3.33;;;;;;;17.43;100.00;97440.13;5047796;28;20398;-66
2023/07/13 04:58:02;;;;;;;7.43;3.47;;;;;;;17.40;100.00;97441.50;5036156;28;20393;-66
2023/07/13 05:00:29;;;;;;;5.53;3.35;;;;;;;17.38;100.00;97446.34;5049904;28;20410;-66
2023/07/13 05:02:57;;;;;;;5.90;3.38;;;;;;;17.35;100.00;97441.59;5045867;28;20410;-66
2023/07/13 05:05:25;;;;;;;3.53;2.80;;;;;;;17.34;100.00;97444.53;5035075;28;20438;-66
2023/07/13 05:07:51;;;;;;;4.65;3.50;;;;;;;17.35;100.00;97449.59;5016546;28;20413;-66
2023/07/13 05:10:18;;;;;;;5.15;3.58;;;;;;;17.37;100.00;97444.75;5037201;28;20395;-66
2023/07/13 05:12:44;;;;;;;5.55;3.80;;;;;;;17.44;100.00;97448.94;5036593;28;20403;-66
2023/07/13 05:15:11;;;;;;;4.00;3.30;;;;;;;17.48;100.00;97455.28;5045425;28;20401;-66
2023/07/13 05:17:38;;;;;;;5.05;3.65;;;;;;;17.52;100.00;97448.25;5049465;28;20401;-67
2023/07/13 05:20:06;;;;;;;4.78;3.70;;;;;;;17.60;100.00;97450.25;5049799;28;20430;-67
2023/07/13 05:22:34;;;;;;;4.45;3.50;;;;;;;17.67;100.00;97451.47;5049494;28;20444;-67
2023/07/13 05:25:01;;;;;;;9.80;4.28;;;;;;;17.74;100.00;97451.88;5049383;28;20459;-67
2023/07/13 05:27:27;;;;;;;4.97;3.40;;;;;;;17.82;100.00;97455.78;5049726;28;20955;-67
2023/07/13 05:29:53;;;;;;;4.88;3.55;;;;;;;17.89;100.00;97455.41;5050091;28;20504;-67
2023/07/13 05:32:19;;;;;;;4.85;3.78;;;;;;;17.96;100.00;97448.56;5053617;28;20405;-67
2023/07/13 05:34:46;;;;;;;4.65;3.55;;;;;;;18.01;100.00;97445.78;5053733;28;20456;-67
2023/07/13 05:37:12;;;;;;;6.20;4.00;;;;;;;18.05;100.00;97449.44;5053355;28;20429;-67
2023/07/13 05:39:40;;;;;;;4.45;3.30;;;;;;;18.10;100.00;97453.94;5053306;28;20402;-67
2023/07/13 05:42:06;;;;;;;6.75;3.42;;;;;;;18.09;100.00;97453.13;5053224;28;20819;-67
2023/07/13 05:44:33;;;;;;;5.40;3.30;;;;;;;18.12;100.00;97457.88;5037586;28;20502;-67
2023/07/13 05:46:59;;;;;;;4.05;3.58;;;;;;;18.15;100.00;97459.19;5047588;28;20743;-67
2023/07/13 05:49:25;;;;;;;6.28;3.72;;;;;;;18.13;100.00;97459.47;5053360;28;20406;-67
2023/07/13 05:51:51;;;;;;;4.95;3.60;;;;;;;18.16;100.00;97463.44;5052999;28;20405;-66
2023/07/13 05:54:18;;;;;;;6.23;3.90;;;;;;;18.21;100.00;97462.53;5052990;28;20401;-67
2023/07/13 05:56:45;;;;;;;6.22;3.90;;;;;;;18.27;100.00;97462.16;5052997;28;20500;-67
2023/07/13 05:59:11;;;;;;;4.95;3.63;;;;;;;18.30;100.00;97455.41;5053098;28;20412;-67
2023/07/13 06:01:38;;;;;;;5.80;3.45;;;;;;;18.33;100.00;97470.91;5052738;28;20456;-67
2023/07/13 06:04:04;;;;;;;4.55;3.83;;;;;;;18.36;100.00;97467.59;5052673;28;20409;-67
2023/07/13 06:06:30;;;;;;;7.10;4.15;;;;;;;18.38;100.00;97471.59;5052797;28;20815;-67
2023/07/13 06:08:57;;;;;;;4.22;3.83;;;;;;;18.43;100.00;97479.50;5053074;28;20409;-66
2023/07/13 06:11:27;;;;;;;7.33;4.13;;;;;;;18.48;100.00;97476.75;5052635;28;20433;-66
2023/07/13 06:13:55;;;;;;;5.00;3.65;;;;;;;18.48;100.00;97476.75;5042441;28;20782;-67
2023/07/13 06:16:21;;;;;;;6.05;3.63;;;;;;;18.46;100.00;97478.13;5032976;28;20961;-67
2023/07/13 06:18:47;;;;;;;6.68;3.33;;;;;;;18.40;100.00;97479.34;5035770;28;20492;-68
2023/07/13 06:21:16;;;;;;;3.47;3.17;;;;;;;18.45;100.00;97482.69;5040076;28;20802;-67
2023/07/13 06:23:42;;;;;;;7.10;3.38;;;;;;;18.47;100.00;97487.75;5050660;28;20413;-67
2023/07/13 06:26:09;;;;;;;5.30;2.70;;;;;;;18.42;100.00;97488.63;5066719;23;20813;-67
2023/07/13 06:28:36;;;;;;;4.35;3.05;;;;;;;18.43;100.00;97489.44;5061854;28;20421;-68
2023/07/13 06:31:06;;;;;;;5.15;2.97;;;;;;;18.40;100.00;97498.09;5050018;28;20424;-67
2023/07/13 06:33:33;;;;;;;4.50;2.72;;;;;;;18.48;100.00;97494.72;5058816;28;20559;-68
2023/07/13 06:35:59;;;;;;;5.45;2.50;;;;;;;18.58;100.00;97507.91;5052317;28;20397;-68
2023/07/13 06:38:25;;;;;;;4.70;2.47;;;;;;;18.57;100.00;97503.66;5052329;28;20504;-68
2023/07/13 06:40:52;;;;;;;6.07;2.58;;;;;;;18.57;100.00;97506.34;5052262;28;20830;-68
2023/07/13 06:43:20;;;;;;;2.50;2.17;;;;;;;18.70;100.00;97505.53;5051211;28;20410;-68
2023/07/13 06:45:49;;;;;;;3.17;2.40;;;;;;;18.81;100.00;97514.16;5049173;28;20420;-68
2023/07/13 06:48:18;;;;;;;4.25;2.35;;;;;;;18.92;100.00;97512.84;5049068;28;20402;-68
2023/07/13 06:50:45;;;;;;;4.33;2.10;;;;;;;19.02;100.00;97515.28;5053744;28;20397;-68
2023/07/13 06:53:12;;;;;;;6.87;2.40;;;;;;;19.05;100.00;97519.28;5051606;28;20914;-68
2023/07/13 06:55:39;;;;;;;4.95;2.40;;;;;;;19.10;100.00;97511.91;5051897;28;20448;-68
2023/07/13 06:58:06;;;;;;;2.90;2.08;;;;;;;19.18;100.00;97516.56;5051925;28;20405;-68
2023/07/13 07:00:32;;;;;;;5.50;2.20;;;;;;;19.23;100.00;97518.34;5051320;28;20420;-68
2023/07/13 07:02:58;;;;;;;2.85;2.10;;;;;;;19.27;100.00;97514.72;5051918;28;20409;-68
2023/07/13 07:05:26;;;;;;;3.63;2.00;;;;;;;19.29;100.00;97512.56;5051318;28;20439;-68
2023/07/13 07:07:53;;;;;;;2.22;1.90;;;;;;;19.34;100.00;97520.47;5051695;28;20680;-68
2023/07/13 07:10:20;;;;;;;4.25;2.25;;;;;;;19.38;100.00;97520.69;5051535;28;20463;-68
2023/07/13 07:12:47;;;;;;;3.47;2.20;;;;;;;19.33;100.00;97520.78;5044345;28;20439;-68
2023/07/13 07:15:13;;;;;;;7.05;2.42;;;;;;;19.36;100.00;97524.75;5053659;28;20443;-68
2023/07/13 07:17:40;;;;;;;5.32;2.20;;;;;;;19.32;100.00;97516.53;5050396;28;20409;-68
2023/07/13 07:20:07;;;;;;;3.40;1.60;;;;;;;19.41;100.00;97524.63;5051332;28;20504;-68
2023/07/13 07:22:34;;;;;;;4.63;1.77;;;;;;;19.46;100.00;97521.84;5031867;28;20418;-68
2023/07/13 07:25:00;;;;;;;5.63;1.70;;;;;;;19.45;100.00;97520.25;5050103;28;20445;-68
2023/07/13 07:27:27;;;;;;;4.95;1.70;;;;;;;19.49;100.00;97522.03;5050148;28;20417;-68
2023/07/13 07:29:53;;;;;;;5.88;1.75;;;;;;;19.60;100.00;97515.34;5050746;28;20410;-68
2023/07/13 07:32:20;;;;;;;2.50;1.58;;;;;;;19.49;100.00;97522.03;5050588;28;20426;-68
2023/07/13 07:34:46;;;;;;;3.65;1.70;;;;;;;19.50;100.00;97523.63;5051016;28;20440;-68
2023/07/13 07:37:14;;;;;;;3.13;1.50;;;;;;;19.49;100.00;97518.56;5050556;28;20413;-68
2023/07/13 07:39:44;;;;;;;3.57;1.50;;;;;;;19.50;100.00;97512.88;5042535;28;20417;-68
2023/07/13 07:42:12;;;;;;;2.00;1.60;;;;;;;19.55;100.00;97509.28;5050806;28;20404;-68
2023/07/13 07:44:39;;;;;;;2.42;1.40;;;;;;;19.61;100.00;97510.75;5050636;28;20401;-68
2023/07/13 07:47:06;;;;;;;1.77;1.30;;;;;;;19.66;100.00;97516.78;5050271;28;20437;-68
2023/07/13 07:49:32;;;;;;;1.92;1.23;;;;;;;19.72;100.00;97517.44;5050701;28;20402;-68
2023/07/13 07:51:58;;;;;;;4.68;1.70;;;;;;;19.77;100.00;97524.63;5050565;28;20413;-68
2023/07/13 07:54:24;;;;;;;3.08;2.10;;;;;;;19.81;100.00;97523.69;5049278;28;20467;-68
2023/07/13 07:56:52;;;;;;;5.95;1.77;;;;;;;19.86;100.00;97520.06;5049314;28;20505;-68
2023/07/13 07:59:19;;;;;;;3.75;1.63;;;;;;;19.86;100.00;97512.00;5050427;28;20397;-68
2023/07/13 08:01:47;;;;;;;4.90;1.58;;;;;;;19.88;100.00;97524.03;5049303;28;20421;-68
2023/07/13 08:04:14;;;;;;;2.77;1.60;;;;;;;19.96;100.00;97531.34;5051649;28;20420;-68
2023/07/13 08:06:40;;;;;;;4.10;1.60;;;;;;;20.00;100.00;97526.94;5050266;28;20891;-68
2023/07/13 08:09:07;;;;;;;3.50;1.42;;;;;;;20.16;100.00;97534.59;5049736;28;20409;-68
2023/07/13 08:11:34;;;;;;;7.97;1.90;;;;;;;20.13;100.00;97527.97;5050265;28;20949;-68
2023/07/13 08:14:01;;;;;;;2.65;1.35;;;;;;;20.14;100.00;97534.13;5048517;28;20420;-68
2023/07/13 08:16:28;;;;;;;2.92;1.52;;;;;;;20.21;100.00;97526.44;5031506;28;20409;-68
2023/07/13 08:18:54;;;;;;;4.35;1.63;;;;;;;20.26;100.00;97527.06;5049215;28;20783;-68
2023/07/13 08:21:21;;;;;;;2.85;1.50;;;;;;;20.38;100.00;97526.50;5049518;28;20417;-68
2023/07/13 08:23:47;;;;;;;4.70;1.60;;;;;;;20.47;100.00;97533.50;5048713;28;20795;-68
2023/07/13 08:26:14;;;;;;;3.22;1.50;;;;;;;20.62;100.00;97528.81;5050278;28;20405;-68
2023/07/13 08:28:40;;;;;;;3.23;1.77;;;;;;;20.61;100.00;97538.78;5050083;28;20874;-68
2023/07/13 08:31:09;;;;;;;2.53;1.52;;;;;;;20.70;100.00;97526.16;5049950;28;20404;-68
2023/07/13 08:33:36;;;;;;;2.78;1.60;;;;;;;20.81;100.00;97521.28;5049609;28;20476;-68
2023/07/13 08:36:02;;;;;;;2.07;1.67;;;;;;;20.88;100.00;97526.19;5049292;28;20875;-68
2023/07/13 08:38:28;;;;;;;2.25;1.40;;;;;;;20.90;100.00;97521.31;5050155;28;20413;-68
2023/07/13 08:40:56;;;;;;;2.83;1.80;;;;;;;21.01;100.00;97531.44;5050011;28;20456;-68
2023/07/13 08:43:27;;;;;;;2.95;1.50;;;;;;;20.89;100.00;97533.97;5050009;28;20405;-68
2023/07/13 08:45:59;;;;;;;2.90;1.50;;;;;;;20.89;100.00;97533.16;5049605;28;20481;-68
2023/07/13 08:48:30;;;;;;;2.42;1.60;;;;;;;20.94;100.00;97531.09;5050191;28;20416;-68
2023/07/13 08:51:01;;;;;;;2.83;1.60;;;;;;;21.03;100.00;97541.91;5049969;28;20416;-68
2023/07/13 08:53:34;;;;;;;4.03;1.70;;;;;;;21.21;100.00;97540.81;5049298;28;20416;-68
2023/07/13 08:56:01;;;;;;;3.53;1.63;;;;;;;21.32;100.00;97544.00;5049849;28;20405;-68
2023/07/13 08:58:28;;;;;;;4.22;1.70;;;;;;;21.48;100.00;97537.03;5049990;28;20397;-68
2023/07/13 09:01:04;;;;;;;2.80;1.73;;;;;;;21.52;100.00;97533.38;5048602;28;20903;-68
2023/07/13 09:03:43;;;;;;;2.25;1.52;;;;;;;21.53;100.00;97543.06;5047523;28;20437;-68
2023/07/13 09:06:13;;;;;;;6.07;1.75;;;;;;;21.43;100.00;97527.19;5050989;28;20439;-68
2023/07/13 09:08:51;;;;;;;2.38;1.60;;;;;;;21.48;100.00;97535.13;5053326;28;20451;-68
2023/07/13 09:11:34;;;;;;;2.03;1.27;;;;;;;21.63;100.00;97542.72;5053644;28;20405;-68
2023/07/13 09:14:13;;;;;;;4.15;1.60;;;;;;;21.85;100.00;97540.97;5053901;28;20389;-68
2023/07/13 09:16:41;;;;;;;3.60;1.60;;;;;;;22.07;100.00;97534.59;5052835;28;20906;-68
2023/07/13 09:19:16;;;;;;;3.50;1.20;;;;;;;22.17;100.00;97542.34;5053544;28;20409;-68
2023/07/13 09:21:44;;;;;;;5.70;1.38;;;;;;;22.23;100.00;97551.84;5053549;28;20929;-68
2023/07/13 09:24:36;;;;;;;2.50;1.40;;;;;;;22.06;100.00;97557.28;5035529;28;20908;-68
2023/07/13 09:27:09;;;;;;;3.72;1.67;;;;;;;22.09;100.00;97548.56;5053396;28;20407;-69
2023/07/13 09:29:36;;;;;;;5.82;1.85;;;;;;;21.89;100.00;97548.06;5052639;28;20926;-69
2023/07/13 09:32:09;;;;;;;2.05;1.40;;;;;;;21.90;100.00;97555.03;5053462;28;20397;-68
2023/07/13 09:34:36;;;;;;;5.40;1.50;;;;;;;22.03;100.00;97544.44;5034957;28;20413;-68
2023/07/13 09:37:04;;;;;;;2.97;1.40;;;;;;;22.20;100.00;97541.69;5047593;28;20416;-68
2023/07/13 09:39:35;;;;;;;2.92;1.30;;;;;;;22.48;100.00;97542.06;5052892;28;20420;-68
2023/07/13 09:42:07;;;;;;;3.88;1.42;;;;;;;22.63;100.00;97538.84;5047297;28;20413;-68
2023/07/13 09:44:35;;;;;;;2.70;1.20;;;;;;;22.79;100.00;97539.88;5052934;28;20393;-68
2023/07/13 09:47:02;;;;;;;2.90;1.30;;;;;;;22.86;100.00;97531.25;5051987;28;20410;-68
2023/07/13 09:49:35;;;;;;;10.93;1.95;;;;;;;22.83;100.00;97537.31;5051383;28;20469;-68
2023/07/13 09:52:05;;;;;;;3.13;1.27;;;;;;;22.74;100.00;97543.56;5042084;28;20978;-68
2023/07/13 09:54:34;;;;;;;12.98;2.10;;;;;;;22.54;100.00;97538.06;5049895;28;20401;-68
2023/07/13 09:57:01;;;;;;;2.75;1.10;;;;;;;22.62;100.00;97540.72;5050877;28;20415;-68
2023/07/13 09:59:32;;;;;;;1.77;1.25;;;;;;;22.80;100.00;97538.75;5051203;28;20405;-69
2023/07/13 10:01:59;;;;;;;4.07;1.38;;;;;;;22.96;100.00;97538.97;5050069;28;20420;-68
2023/07/13 10:04:30;;;;;;;2.00;1.30;;;;;;;22.95;100.00;97521.97;5054359;28;20496;-69
2023/07/13 10:07:08;;;;;;;1.88;1.20;;;;;;;23.02;100.00;97534.97;5061424;28;20937;-69
2023/07/13 10:09:34;;;;;;;1.52;1.23;;;;;;;23.11;100.00;97535.69;5051743;28;20407;-68
2023/07/13 10:12:01;;;;;;;1.80;1.30;;;;;;;23.22;100.00;97534.19;5054247;28;20408;-69
2023/07/13 10:14:28;;;;;;;5.63;2.10;;;;;;;23.33;100.00;97529.19;5064002;28;20413;-68
2023/07/13 10:16:59;;;;;;;4.20;1.40;;;;;;;23.40;100.00;97535.63;5056641;28;20425;-68
2023/07/13 10:19:31;;;;;;;2.77;1.40;;;;;;;23.41;100.00;97533.72;5065844;28;20418;-68
2023/07/13 10:22:00;;;;;;;3.70;1.50;;;;;;;23.47;100.00;97538.59;5052427;28;20424;-68
2023/07/13 10:24:30;;;;;;;2.60;1.40;;;;;;;23.47;100.00;97533.19;5052841;28;20402;-68
2023/07/13 10:27:01;;;;;;;4.40;1.40;;;;;;;23.46;100.00;97530.81;5056443;28;20957;-68
2023/07/13 10:29:29;;;;;;;4.20;1.90;;;;;;;23.43;100.00;97526.09;5067810;28;20414;-68
2023/07/13 10:31:57;;;;;;;5.03;1.40;;;;;;;23.44;100.00;97527.66;5052125;28;20972;-68
2023/07/13 10:34:23;;;;;;;2.63;1.20;;;;;;;23.68;92.86;97529.72;5052633;28;20425;-69
2023/07/13 10:36:51;;;;;;;2.20;1.47;;;;;;;23.54;100.00;97535.38;5052567;28;20857;-70
2023/07/13 10:39:20;;;;;;;1.27;1.10;;;;;;;23.46;100.00;97530.81;5052134;28;20485;-69
2023/07/13 10:41:52;;;;;;;3.42;1.30;;;;;;;23.34;100.00;97536.16;5033682;28;20417;-69
2023/07/13 10:44:26;;;;;;;2.88;1.30;;;;;;;23.22;100.00;97533.41;5052283;28;20417;-69
2023/07/13 10:46:57;;;;;;;1.90;1.20;;;;;;;23.21;100.00;97538.03;5052162;28;20400;-69
2023/07/13 10:49:26;;;;;;;1.58;1.20;;;;;;;23.24;100.00;97533.84;5049861;28;20405;-68
2023/07/13 10:51:52;;;;;;;2.72;1.40;;;;;;;23.26;100.00;97535.13;5048682;28;20827;-69
2023/07/13 10:54:24;;;;;;;2.33;1.47;;;;;;;23.34;100.00;97536.97;5050264;28;20980;-69
2023/07/13 10:57:18;;;;;;;1.98;1.30;;;;;;;23.32;100.00;97530.28;5050618;28;20420;-69
2023/07/13 10:59:48;;;;;;;4.97;1.00;;;;;;;23.39;100.00;97528.66;5046659;28;20875;-69
2023/07/13 11:02:27;;;;;;;4.60;1.60;;;;;;;23.65;100.00;97520.34;5050597;28;20472;-69
2023/07/13 11:04:54;;;;;;;3.43;1.40;;;;;;;23.76;100.00;97512.59;5045294;28;20401;-69
2023/07/13 11:07:24;;;;;;;5.20;1.60;;;;;;;23.75;100.00;97517.25;5051363;28;20484;-69
2023/07/13 11:09:51;;;;;;;6.70;1.70;;;;;;;23.85;87.05;97519.50;5051407;28;20496;-69
2023/07/13 11:12:50;;;;;;;3.53;1.48;;;;;;;23.60;100.00;97522.47;5050841;28;20894;-69
2023/07/13 11:15:30;;;;;;;2.17;1.20;;;;;;;23.47;100.00;97521.59;5016663;28;21101;-69
2023/07/13 11:18:00;;;;;;;3.78;1.60;;;;;;;23.36;100.00;97510.41;5051816;28;20414;-69
2023/07/13 11:20:39;;;;;;;4.03;1.42;;;;;;;23.23;89.00;97502.59;5049336;28;20428;-69
2023/07/13 11:23:18;;;;;;;2.95;1.50;;;;;;;23.30;100.00;97510.94;5051008;28;20409;-69
2023/07/13 11:25:45;;;;;;;1.90;1.38;;;;;;;23.44;100.00;97503.34;5040984;28;20423;-67
2023/07/13 11:28:24;;;;;;;4.07;1.23;;;;;;;23.61;100.00;97497.81;5050044;28;20779;-67